Airport View

Enter AWOS ICAO identifier for current METAR.

ex. KFNL

KCWI 080456Z AUTO 13003KT 10SM CLR 22/21 A2996 RMK AO2 TSB09E24 SLP145 T02220206

8 Jul 2020 04:58

Frequency: 125.525

Phone: 563-243-8934

Other Area AWOS: KSFY - KDVN - KMLI - KSQI

TAF AMD KMLI 080052Z 0801/0824 23005KT P6SM BKN150 FM080130 36013G19KT P6SM BKN050 FM080200 VRB03KT P6SM FEW050